createdAt,value
2023-02-09T00:02:38.807Z,32.25
2023-02-09T00:05:21.495Z,30.50
2023-02-09T00:08:05.766Z,32.40
2023-02-09T00:10:48.563Z,32.40
2023-02-09T00:13:30.252Z,33.33
2023-02-09T00:16:13.119Z,32.30
2023-02-09T00:18:57.153Z,30.25
2023-02-09T00:21:40.339Z,34.45
2023-02-09T00:24:24.815Z,34.13
2023-02-09T00:27:07.618Z,33.13
2023-02-09T00:29:50.332Z,32.42
2023-02-09T00:32:33.445Z,33.33
2023-02-09T00:35:17.213Z,32.30
2023-02-09T00:37:59.918Z,34.42
2023-02-09T00:40:44.580Z,33.22
2023-02-09T00:43:27.500Z,34.38
2023-02-09T00:46:10.325Z,37.05
2023-02-09T00:48:53.058Z,35.58
2023-02-09T00:51:35.739Z,34.90
2023-02-09T00:54:18.585Z,32.67
2023-02-09T00:57:05.450Z,32.58
2023-02-09T00:59:49.610Z,32.00
2023-02-09T01:02:32.313Z,33.17
2023-02-09T01:05:15.137Z,30.73
2023-02-09T01:08:00.302Z,32.97
2023-02-09T01:10:43.422Z,32.55
2023-02-09T01:13:27.665Z,34.30
2023-02-09T01:16:12.942Z,32.45
2023-02-09T01:18:56.380Z,30.52
2023-02-09T01:21:39.088Z,31.90
2023-02-09T01:24:21.712Z,33.00
2023-02-09T01:27:04.611Z,29.63
2023-02-09T01:29:48.759Z,33.08
2023-02-09T01:32:31.418Z,31.00
2023-02-09T01:35:14.086Z,33.10
2023-02-09T01:37:56.796Z,33.08
2023-02-09T01:40:39.622Z,33.80
2023-02-09T01:43:23.899Z,33.35
2023-02-09T01:46:07.950Z,31.67
2023-02-09T01:48:52.367Z,34.65
2023-02-09T01:51:43.393Z,32.47
2023-02-09T01:54:28.343Z,31.73
2023-02-09T01:57:13.124Z,34.88
2023-02-09T01:59:59.111Z,29.23
2023-02-09T02:02:46.887Z,35.08
2023-02-09T02:05:30.059Z,31.13
2023-02-09T02:08:15.701Z,33.17
2023-02-09T02:10:59.865Z,34.13
2023-02-09T02:13:42.500Z,30.85
2023-02-09T02:16:32.768Z,33.80
2023-02-09T02:19:33.998Z,31.10
2023-02-09T02:22:35.045Z,33.30
2023-02-09T02:25:35.235Z,33.45
2023-02-09T02:28:27.603Z,34.20
2023-02-09T02:31:21.548Z,36.03
2023-02-09T02:34:07.863Z,34.65
2023-02-09T02:36:56.288Z,35.97
2023-02-09T02:39:40.494Z,30.73
2023-02-09T02:42:42.938Z,33.42
2023-02-09T02:45:33.981Z,29.70
2023-02-09T02:48:23.806Z,31.40
2023-02-09T02:51:09.198Z,31.70
2023-02-09T02:53:53.805Z,32.13
2023-02-09T02:56:38.151Z,32.00
2023-02-09T02:59:23.535Z,32.50
2023-02-09T03:02:09.404Z,28.50
2023-02-09T03:04:53.682Z,34.50
2023-02-09T03:07:37.587Z,31.58
2023-02-09T03:10:25.302Z,32.42
2023-02-09T03:13:13.209Z,33.28
2023-02-09T03:16:02.283Z,31.00
2023-02-09T03:18:48.040Z,31.25
2023-02-09T03:21:35.210Z,30.98
2023-02-09T03:24:24.874Z,32.17
2023-02-09T03:27:11.714Z,34.83
2023-02-09T03:29:56.970Z,30.52
2023-02-09T03:32:40.187Z,35.05
2023-02-09T03:35:24.904Z,30.83
2023-02-09T03:38:07.605Z,31.67
2023-02-09T03:40:51.545Z,33.47
2023-02-09T03:43:51.517Z,32.20
2023-02-09T03:46:34.507Z,35.65
2023-02-09T03:49:17.070Z,32.85
2023-02-09T03:52:00.707Z,31.30
2023-02-09T03:54:43.357Z,31.50
2023-02-09T03:57:27.305Z,33.42
2023-02-09T04:00:10.770Z,32.33
2023-02-09T04:02:59.318Z,30.60
2023-02-09T04:05:41.928Z,29.42
2023-02-09T04:08:24.488Z,28.17
2023-02-09T04:11:07.192Z,32.42
2023-02-09T04:13:51.116Z,31.10
2023-02-09T04:16:33.774Z,30.15
2023-02-09T04:19:16.442Z,31.45
2023-02-09T04:21:59.080Z,32.15
2023-02-09T04:24:45.322Z,33.38
2023-02-09T04:27:28.411Z,29.48
2023-02-09T04:30:13.224Z,31.88
2023-02-09T04:32:55.789Z,33.95
2023-02-09T04:35:38.504Z,29.60
2023-02-09T04:38:21.697Z,29.17
2023-02-09T04:41:04.750Z,29.90
2023-02-09T04:43:47.452Z,30.67
2023-02-09T04:46:31.415Z,33.00
2023-02-09T04:49:13.999Z,27.02
2023-02-09T04:51:56.614Z,30.38
2023-02-09T04:54:39.220Z,28.38
2023-02-09T04:57:35.739Z,30.40
2023-02-09T05:00:18.630Z,29.63
2023-02-09T05:03:02.610Z,28.25
2023-02-09T05:05:48.904Z,31.88
2023-02-09T05:08:31.982Z,27.50
2023-02-09T05:11:14.539Z,28.52
2023-02-09T05:13:57.188Z,29.17
2023-02-09T05:16:39.908Z,28.00
2023-02-09T05:19:23.854Z,28.02
2023-02-09T05:22:06.445Z,26.75
2023-02-09T05:24:49.014Z,27.83
2023-02-09T05:27:31.708Z,27.05
2023-02-09T05:30:14.463Z,26.10
2023-02-09T05:32:57.155Z,26.10
2023-02-09T05:35:41.065Z,26.25
2023-02-09T05:38:24.186Z,26.73
2023-02-09T05:41:07.129Z,26.92
2023-02-09T05:43:49.749Z,26.55
2023-02-09T05:46:32.431Z,25.13
2023-02-09T05:49:15.031Z,22.50
2023-02-09T05:51:58.946Z,21.95
2023-02-09T05:54:41.619Z,27.00
2023-02-09T05:57:24.188Z,24.73
2023-02-09T06:00:07.641Z,24.48
2023-02-09T06:02:56.016Z,23.60
2023-02-09T06:05:38.650Z,23.85
2023-02-09T06:08:22.611Z,25.42
2023-02-09T06:11:06.101Z,25.48
2023-02-09T06:13:48.670Z,25.50
2023-02-09T06:16:31.262Z,23.17
2023-02-09T06:19:14.830Z,23.15
2023-02-09T06:21:57.502Z,24.25
2023-02-09T06:24:41.462Z,26.55
2023-02-09T06:27:24.066Z,23.77
2023-02-09T06:30:07.215Z,23.38
2023-02-09T06:33:37.817Z,23.85
2023-02-09T06:36:20.394Z,26.27
2023-02-09T06:39:02.988Z,22.20
2023-02-09T06:41:46.899Z,23.38
2023-02-09T06:44:29.489Z,23.90
2023-02-09T06:47:12.115Z,26.13
2023-02-09T06:49:54.795Z,22.63
2023-02-09T06:52:37.444Z,23.42
2023-02-09T06:55:20.186Z,24.58
2023-02-09T06:58:04.387Z,22.27
2023-02-09T07:00:47.308Z,22.67
2023-02-09T07:03:30.749Z,20.95
2023-02-09T07:06:14.309Z,22.70
2023-02-09T07:08:56.960Z,19.65
2023-02-09T07:11:39.532Z,20.63
2023-02-09T07:14:23.497Z,22.60
2023-02-09T07:17:06.052Z,21.80
2023-02-09T07:19:48.687Z,19.98
2023-02-09T07:22:31.268Z,17.20
2023-02-09T07:25:13.962Z,15.95
2023-02-09T07:27:56.523Z,18.10
2023-02-09T07:30:42.020Z,17.90
2023-02-09T07:33:24.634Z,15.77
2023-02-09T07:36:08.244Z,13.63
2023-02-09T07:38:51.074Z,14.38
2023-02-09T07:41:33.846Z,14.25
2023-02-09T07:44:16.455Z,13.32
2023-02-09T07:47:00.457Z,12.75
2023-02-09T07:49:43.116Z,10.88
2023-02-09T07:52:25.825Z,11.60
2023-02-09T07:55:08.721Z,11.35
2023-02-09T07:57:51.431Z,14.05
2023-02-09T08:00:34.090Z,14.30
2023-02-09T08:03:19.379Z,14.15
2023-02-09T08:06:03.516Z,11.43
2023-02-09T08:08:46.307Z,15.90
2023-02-09T08:11:30.351Z,12.23
2023-02-09T08:14:14.424Z,16.20
2023-02-09T08:17:18.859Z,11.65
2023-02-09T08:20:04.538Z,12.63
2023-02-09T08:22:50.092Z,12.23
2023-02-09T08:25:33.078Z,14.65
2023-02-09T08:28:15.930Z,15.02
2023-02-09T08:30:58.653Z,15.50
2023-02-09T08:33:41.398Z,12.35
2023-02-09T08:36:25.351Z,13.45
2023-02-09T08:39:08.163Z,12.07
2023-02-09T08:41:50.725Z,13.68
2023-02-09T08:44:33.452Z,14.75
2023-02-09T08:47:16.088Z,11.18
2023-02-09T08:49:59.228Z,13.48
2023-02-09T08:52:43.209Z,11.50
2023-02-09T08:55:25.848Z,13.85
2023-02-09T08:58:08.451Z,11.43
2023-02-09T09:00:51.099Z,14.80
2023-02-09T09:03:33.851Z,12.95
2023-02-09T09:06:16.619Z,15.80
2023-02-09T09:09:00.590Z,13.57
2023-02-09T09:11:43.207Z,15.40
2023-02-09T09:14:26.710Z,12.25
2023-02-09T09:17:09.348Z,13.52
2023-02-09T09:19:52.499Z,12.75
2023-02-09T09:22:35.134Z,14.52
2023-02-09T09:25:19.214Z,13.43
2023-02-09T09:28:01.998Z,13.32
2023-02-09T09:30:44.706Z,11.50
2023-02-09T09:33:27.356Z,13.38
2023-02-09T09:36:10.377Z,12.65
2023-02-09T09:38:53.667Z,12.05
2023-02-09T09:41:38.928Z,12.65
2023-02-09T09:44:25.368Z,12.38
2023-02-09T09:47:09.530Z,15.52
2023-02-09T09:49:52.266Z,11.95
2023-02-09T09:52:37.837Z,14.55
2023-02-09T09:55:22.581Z,10.65
2023-02-09T09:58:07.756Z,14.52
2023-02-09T10:00:51.170Z,12.30
2023-02-09T10:03:33.815Z,16.27
2023-02-09T10:06:17.623Z,11.98
2023-02-09T10:09:02.355Z,12.02
2023-02-09T10:11:46.990Z,11.60
2023-02-09T10:14:30.980Z,12.35
2023-02-09T10:17:13.675Z,14.00
2023-02-09T10:20:03.053Z,13.70
2023-02-09T10:22:46.397Z,11.15
2023-02-09T10:25:39.109Z,11.65
2023-02-09T10:28:22.978Z,11.48
2023-02-09T10:31:13.137Z,13.23
2023-02-09T10:33:57.950Z,10.52
2023-02-09T10:36:47.907Z,13.65
2023-02-09T10:39:32.059Z,12.00
2023-02-09T10:42:18.653Z,11.20
2023-02-09T10:45:06.148Z,11.80
2023-02-09T10:47:59.440Z,11.07
2023-02-09T10:50:49.979Z,11.50
2023-02-09T10:53:33.719Z,12.57
2023-02-09T10:56:17.263Z,14.30
2023-02-09T10:59:01.114Z,12.00
2023-02-09T11:01:44.500Z,13.93
2023-02-09T11:04:31.674Z,13.27
2023-02-09T11:07:16.128Z,11.05
2023-02-09T11:09:59.602Z,12.88
2023-02-09T11:12:43.518Z,15.38
2023-02-09T11:15:27.743Z,12.65
2023-02-09T11:18:15.491Z,15.02
2023-02-09T11:21:05.808Z,14.93
2023-02-09T11:23:52.226Z,13.15
2023-02-09T11:26:39.355Z,14.30
2023-02-09T11:29:25.661Z,14.10
2023-02-09T11:32:15.802Z,10.55
2023-02-09T11:35:05.239Z,11.82
2023-02-09T11:37:52.944Z,14.13
2023-02-09T11:40:38.812Z,14.68
2023-02-09T11:43:27.402Z,13.13
2023-02-09T11:46:13.844Z,11.95
2023-02-09T11:48:58.795Z,10.45
2023-02-09T11:51:43.253Z,13.95
2023-02-09T11:54:30.679Z,12.15
2023-02-09T11:57:17.185Z,11.27
2023-02-09T12:00:00.007Z,11.80
2023-02-09T12:02:46.298Z,12.82
2023-02-09T12:05:29.152Z,14.00
2023-02-09T12:08:17.841Z,10.27
2023-02-09T12:11:10.518Z,11.85
2023-02-09T12:14:03.668Z,12.48
2023-02-09T12:16:48.436Z,13.77
2023-02-09T12:19:34.464Z,12.13
2023-02-09T12:22:35.509Z,12.43
2023-02-09T12:25:31.908Z,13.23
2023-02-09T12:28:18.057Z,14.27
2023-02-09T12:31:03.039Z,11.10
2023-02-09T12:34:04.378Z,12.25
2023-02-09T12:37:05.870Z,13.45
2023-02-09T12:40:18.160Z,11.80
2023-02-09T12:43:06.547Z,14.68
2023-02-09T12:46:10.606Z,12.23
2023-02-09T12:49:25.475Z,12.15
2023-02-09T12:52:15.680Z,12.50
2023-02-09T12:54:58.404Z,12.48
2023-02-09T12:57:50.395Z,11.93
2023-02-09T13:00:40.606Z,12.70
2023-02-09T13:03:26.389Z,11.85
2023-02-09T13:06:16.887Z,14.82
2023-02-09T13:09:01.038Z,17.70
2023-02-09T13:11:45.778Z,12.40
2023-02-09T13:14:28.422Z,12.02
2023-02-09T13:17:22.328Z,10.80
2023-02-09T13:20:15.264Z,11.60
2023-02-09T13:23:04.190Z,12.15
2023-02-09T13:25:47.428Z,12.73
2023-02-09T13:28:30.282Z,13.32
2023-02-09T13:31:33.694Z,13.45
2023-02-09T13:34:21.791Z,13.48
2023-02-09T13:37:11.005Z,11.60
2023-02-09T13:39:55.007Z,13.18
2023-02-09T13:42:37.746Z,10.60
2023-02-09T13:45:20.789Z,12.38
2023-02-09T13:48:04.825Z,13.88
2023-02-09T13:50:47.778Z,13.35
2023-02-09T13:53:32.444Z,11.10
2023-02-09T13:56:16.278Z,16.27
2023-02-09T13:58:59.158Z,12.38
2023-02-09T14:01:45.870Z,11.73
2023-02-09T14:04:31.318Z,11.15
2023-02-09T14:07:14.634Z,12.27
2023-02-09T14:10:00.479Z,11.13
2023-02-09T14:12:55.849Z,12.00
2023-02-09T14:15:57.240Z,12.70
2023-02-09T14:18:44.343Z,15.60
2023-02-09T14:21:28.530Z,12.18
2023-02-09T14:24:21.373Z,13.43
2023-02-09T14:27:18.830Z,14.00
2023-02-09T14:30:01.951Z,13.27
2023-02-09T14:32:45.392Z,15.45
2023-02-09T14:35:29.527Z,13.30
2023-02-09T14:38:27.004Z,14.27
2023-02-09T14:41:19.882Z,14.05
2023-02-09T14:44:04.837Z,13.93
2023-02-09T14:46:49.446Z,11.85
2023-02-09T14:49:32.071Z,15.40
2023-02-09T14:52:15.351Z,12.40
2023-02-09T14:54:59.967Z,14.00
2023-02-09T14:57:42.807Z,14.75
2023-02-09T15:00:29.024Z,12.20
2023-02-09T15:03:11.613Z,17.42
2023-02-09T15:05:56.746Z,13.80
2023-02-09T15:08:39.977Z,12.40
2023-02-09T15:11:42.877Z,10.60
2023-02-09T15:14:26.338Z,15.52
2023-02-09T15:17:20.200Z,13.15
2023-02-09T15:20:02.843Z,14.23
2023-02-09T15:22:45.473Z,13.65
2023-02-09T15:25:28.630Z,13.07
2023-02-09T15:28:15.528Z,12.82
2023-02-09T15:30:58.936Z,12.40
2023-02-09T15:33:42.943Z,11.88
2023-02-09T15:36:26.340Z,12.18
2023-02-09T15:39:13.577Z,15.73
2023-02-09T15:42:13.793Z,18.33
2023-02-09T15:45:13.684Z,14.32
2023-02-09T15:47:58.769Z,13.43
2023-02-09T15:50:44.634Z,13.27
2023-02-09T15:53:27.827Z,14.95
2023-02-09T15:56:10.925Z,12.48
2023-02-09T15:58:54.486Z,12.60
2023-02-09T16:01:37.230Z,14.95
2023-02-09T16:04:19.864Z,11.93
2023-02-09T16:07:03.870Z,15.85
2023-02-09T16:09:46.536Z,14.20
2023-02-09T16:12:29.206Z,12.32
2023-02-09T16:15:15.515Z,11.00
2023-02-09T16:17:58.176Z,16.17
2023-02-09T16:20:46.640Z,14.75
2023-02-09T16:23:31.714Z,13.68
2023-02-09T16:26:14.362Z,13.07
2023-02-09T16:28:57.031Z,11.38
2023-02-09T16:31:39.805Z,15.07
2023-02-09T16:34:22.547Z,12.88
2023-02-09T16:37:05.210Z,13.25
2023-02-09T16:39:49.285Z,13.25
2023-02-09T16:42:31.889Z,12.20
2023-02-09T16:45:15.155Z,13.80
2023-02-09T16:47:59.735Z,13.57
2023-02-09T16:50:46.821Z,15.13
2023-02-09T16:53:32.915Z,14.38
2023-02-09T16:56:16.947Z,14.27
2023-02-09T16:58:59.640Z,12.50
2023-02-09T17:01:42.276Z,12.93
2023-02-09T17:04:24.880Z,11.88
2023-02-09T17:07:07.487Z,16.58
2023-02-09T17:09:50.102Z,14.10
2023-02-09T17:12:34.054Z,14.38
2023-02-09T17:15:28.843Z,14.77
2023-02-09T17:18:15.589Z,13.55
2023-02-09T17:20:59.131Z,13.20
2023-02-09T17:23:43.393Z,15.35
2023-02-09T17:26:26.167Z,13.38
2023-02-09T17:29:10.499Z,16.23
2023-02-09T17:31:53.967Z,15.20
2023-02-09T17:34:37.240Z,17.15
2023-02-09T17:37:19.861Z,14.82
2023-02-09T17:40:02.497Z,14.13
2023-02-09T17:42:45.680Z,14.73
2023-02-09T17:45:34.815Z,17.20
2023-02-09T17:48:17.974Z,15.70
2023-02-09T17:51:02.667Z,15.07
2023-02-09T17:53:45.355Z,16.65
2023-02-09T17:56:28.252Z,13.73
2023-02-09T17:59:10.930Z,18.35
2023-02-09T18:01:56.214Z,14.40
2023-02-09T18:04:39.074Z,14.17
2023-02-09T18:07:21.796Z,17.20
2023-02-09T18:10:04.518Z,16.23
2023-02-09T18:12:47.270Z,15.43
2023-02-09T18:15:30.927Z,15.43
2023-02-09T18:18:14.997Z,15.93
2023-02-09T18:20:57.646Z,15.57
2023-02-09T18:23:42.449Z,18.02
2023-02-09T18:26:25.252Z,16.30
2023-02-09T18:29:08.359Z,16.48
2023-02-09T18:31:51.051Z,19.08
2023-02-09T18:34:36.544Z,17.40
2023-02-09T18:37:19.660Z,15.80
2023-02-09T18:40:02.261Z,15.95
2023-02-09T18:42:46.480Z,15.25
2023-02-09T18:45:30.474Z,17.58
2023-02-09T18:48:13.066Z,15.27
2023-02-09T18:50:57.057Z,16.38
2023-02-09T18:53:40.021Z,17.65
2023-02-09T18:56:24.476Z,17.35
2023-02-09T18:59:08.001Z,18.35
2023-02-09T19:01:50.920Z,18.67
2023-02-09T19:04:33.579Z,17.88
2023-02-09T19:07:17.560Z,18.48
2023-02-09T19:10:00.675Z,17.73
2023-02-09T19:12:44.063Z,18.83
2023-02-09T19:15:26.693Z,16.73
2023-02-09T19:18:09.298Z,18.35
2023-02-09T19:20:55.666Z,19.02
2023-02-09T19:23:39.906Z,18.92
2023-02-09T19:26:22.654Z,19.08
2023-02-09T19:29:05.297Z,16.92
2023-02-09T19:31:48.712Z,21.33
2023-02-09T19:34:32.113Z,17.15
2023-02-09T19:37:16.308Z,17.50
2023-02-09T19:40:07.354Z,17.65
2023-02-09T19:42:49.986Z,21.15
2023-02-09T19:45:36.466Z,19.00
2023-02-09T19:48:19.229Z,18.52
2023-02-09T19:51:01.918Z,20.60
2023-02-09T19:53:44.636Z,18.50
2023-02-09T19:56:28.859Z,20.95
2023-02-09T19:59:11.592Z,20.35
2023-02-09T20:01:54.338Z,21.95
2023-02-09T20:04:37.516Z,21.85
2023-02-09T20:07:20.150Z,20.33
2023-02-09T20:10:02.817Z,20.70
2023-02-09T20:12:46.854Z,18.35
2023-02-09T20:15:29.490Z,22.60
2023-02-09T20:18:14.868Z,19.63
2023-02-09T20:20:59.827Z,21.98
2023-02-09T20:23:43.531Z,19.80
2023-02-09T20:26:29.568Z,19.85
2023-02-09T20:29:14.004Z,18.88
2023-02-09T20:31:56.632Z,19.50
2023-02-09T20:34:39.233Z,18.55
2023-02-09T20:37:22.311Z,21.05
2023-02-09T20:40:06.019Z,23.90
2023-02-09T20:43:05.944Z,20.35
2023-02-09T20:46:07.452Z,22.42
2023-02-09T20:48:50.219Z,20.65
2023-02-09T20:51:33.051Z,23.13
2023-02-09T20:54:15.832Z,24.23
2023-02-09T20:56:58.423Z,23.92
2023-02-09T20:59:41.132Z,18.42
2023-02-09T21:02:25.352Z,19.70
2023-02-09T21:05:08.672Z,20.80
2023-02-09T21:07:52.078Z,22.08
2023-02-09T21:10:35.831Z,22.20
2023-02-09T21:13:18.552Z,21.27
2023-02-09T21:16:03.239Z,18.98
2023-02-09T21:18:48.037Z,23.33
2023-02-09T21:21:30.729Z,22.83
2023-02-09T21:24:13.402Z,19.58
2023-02-09T21:26:56.001Z,23.30
2023-02-09T21:29:38.599Z,22.23
2023-02-09T21:32:21.269Z,19.95
2023-02-09T21:35:09.941Z,25.00
2023-02-09T21:37:52.665Z,22.45
2023-02-09T21:40:35.298Z,23.50
2023-02-09T21:43:17.898Z,22.23
2023-02-09T21:46:00.675Z,19.92
2023-02-09T21:48:43.335Z,24.48
2023-02-09T21:51:27.301Z,22.23
2023-02-09T21:54:13.072Z,24.92
2023-02-09T21:56:55.657Z,22.08
2023-02-09T21:59:38.310Z,20.17
2023-02-09T22:02:23.015Z,23.35
2023-02-09T22:05:06.046Z,23.63
2023-02-09T22:07:50.705Z,24.98
2023-02-09T22:10:33.296Z,30.30
2023-02-09T22:13:15.981Z,25.88
2023-02-09T22:15:58.641Z,22.30
2023-02-09T22:18:41.187Z,20.77
2023-02-09T22:21:23.854Z,23.73
2023-02-09T22:24:07.988Z,25.13
2023-02-09T22:26:50.612Z,23.95
2023-02-09T22:29:34.493Z,21.13
2023-02-09T22:32:17.163Z,22.77
2023-02-09T22:34:59.729Z,27.05
2023-02-09T22:37:42.396Z,25.70
2023-02-09T22:40:26.320Z,23.13
2023-02-09T22:43:08.956Z,24.90
2023-02-09T22:45:55.519Z,24.15
2023-02-09T22:48:38.109Z,25.13
2023-02-09T22:51:20.778Z,23.00
2023-02-09T22:54:03.723Z,23.85
2023-02-09T22:56:47.949Z,19.55
2023-02-09T22:59:30.604Z,21.40
2023-02-09T23:02:13.258Z,24.00
2023-02-09T23:04:55.818Z,22.55
2023-02-09T23:07:38.458Z,21.63
2023-02-09T23:10:22.464Z,23.42
2023-02-09T23:13:06.455Z,23.83
2023-02-09T23:15:49.477Z,21.30
2023-02-09T23:18:32.329Z,23.73
2023-02-09T23:21:15.648Z,21.17
2023-02-09T23:23:58.440Z,23.27
2023-02-09T23:26:41.448Z,23.60
2023-02-09T23:29:25.410Z,22.15
2023-02-09T23:32:08.028Z,18.95
2023-02-09T23:34:50.592Z,26.42
2023-02-09T23:37:37.949Z,22.58
2023-02-09T23:40:20.923Z,23.50
2023-02-09T23:43:03.523Z,21.42
2023-02-09T23:45:47.449Z,26.90
2023-02-09T23:48:30.094Z,27.75
2023-02-09T23:51:13.481Z,23.67
2023-02-09T23:53:56.814Z,21.55
2023-02-09T23:56:39.971Z,25.52
2023-02-09T23:59:22.557Z,25.98
